sensor_id;sensor_type;location;lat;lon;timestamp;P1;durP1;ratioP1;P2;durP2;ratioP2
13967;SDS011;39536;52.198;9.920;2022-07-01T00:01:46;6.93;;;6.10;;
13967;SDS011;39536;52.198;9.920;2022-07-01T00:04:14;7.03;;;6.50;;
13967;SDS011;39536;52.198;9.920;2022-07-01T00:06:41;7.00;;;6.53;;
13967;SDS011;39536;52.198;9.920;2022-07-01T00:09:08;6.63;;;6.03;;
13967;SDS011;39536;52.198;9.920;2022-07-01T00:11:36;6.23;;;5.83;;
13967;SDS011;39536;52.198;9.920;2022-07-01T00:14:03;8.13;;;6.33;;
13967;SDS011;39536;52.198;9.920;2022-07-01T00:16:30;6.37;;;5.97;;
13967;SDS011;39536;52.198;9.920;2022-07-01T00:18:56;7.37;;;6.63;;
13967;SDS011;39536;52.198;9.920;2022-07-01T00:21:23;6.30;;;5.90;;
13967;SDS011;39536;52.198;9.920;2022-07-01T00:23:49;7.33;;;6.90;;
13967;SDS011;39536;52.198;9.920;2022-07-01T00:26:16;7.60;;;7.07;;
13967;SDS011;39536;52.198;9.920;2022-07-01T00:28:44;8.73;;;7.93;;
13967;SDS011;39536;52.198;9.920;2022-07-01T00:31:10;10.03;;;9.30;;
13967;SDS011;39536;52.198;9.920;2022-07-01T00:33:37;10.43;;;9.57;;
13967;SDS011;39536;52.198;9.920;2022-07-01T00:36:04;10.47;;;9.87;;
13967;SDS011;39536;52.198;9.920;2022-07-01T00:38:30;11.10;;;10.20;;
13967;SDS011;39536;52.198;9.920;2022-07-01T00:40:57;11.23;;;10.20;;
13967;SDS011;39536;52.198;9.920;2022-07-01T00:43:24;11.33;;;10.53;;
13967;SDS011;39536;52.198;9.920;2022-07-01T00:45:52;12.47;;;11.67;;
13967;SDS011;39536;52.198;9.920;2022-07-01T00:48:19;13.00;;;12.13;;
13967;SDS011;39536;52.198;9.920;2022-07-01T00:50:47;13.33;;;12.47;;
13967;SDS011;39536;52.198;9.920;2022-07-01T00:53:14;12.80;;;11.93;;
13967;SDS011;39536;52.198;9.920;2022-07-01T00:55:40;13.10;;;12.20;;
13967;SDS011;39536;52.198;9.920;2022-07-01T00:58:07;12.83;;;11.93;;
13967;SDS011;39536;52.198;9.920;2022-07-01T01:00:35;12.90;;;11.80;;
13967;SDS011;39536;52.198;9.920;2022-07-01T01:03:04;11.73;;;10.93;;
13967;SDS011;39536;52.198;9.920;2022-07-01T01:05:31;11.60;;;10.80;;
13967;SDS011;39536;52.198;9.920;2022-07-01T01:07:58;11.80;;;11.00;;
13967;SDS011;39536;52.198;9.920;2022-07-01T01:10:24;10.47;;;9.77;;
13967;SDS011;39536;52.198;9.920;2022-07-01T01:12:52;10.87;;;10.17;;
13967;SDS011;39536;52.198;9.920;2022-07-01T01:15:20;10.40;;;9.73;;
13967;SDS011;39536;52.198;9.920;2022-07-01T01:17:48;11.13;;;10.43;;
13967;SDS011;39536;52.198;9.920;2022-07-01T01:20:16;9.97;;;9.30;;
13967;SDS011;39536;52.198;9.920;2022-07-01T01:22:45;10.30;;;9.30;;
13967;SDS011;39536;52.198;9.920;2022-07-01T01:25:13;10.50;;;9.80;;
13967;SDS011;39536;52.198;9.920;2022-07-01T01:27:40;9.87;;;9.27;;
13967;SDS011;39536;52.198;9.920;2022-07-01T01:30:07;9.37;;;8.63;;
13967;SDS011;39536;52.198;9.920;2022-07-01T01:32:36;9.00;;;8.40;;
13967;SDS011;39536;52.198;9.920;2022-07-01T01:35:04;9.03;;;8.43;;
13967;SDS011;39536;52.198;9.920;2022-07-01T01:37:31;8.80;;;8.30;;
13967;SDS011;39536;52.198;9.920;2022-07-01T01:39:58;9.10;;;8.40;;
13967;SDS011;39536;52.198;9.920;2022-07-01T01:42:25;9.60;;;9.10;;
13967;SDS011;39536;52.198;9.920;2022-07-01T01:44:51;10.40;;;9.73;;
13967;SDS011;39536;52.198;9.920;2022-07-01T01:47:19;10.70;;;10.00;;
13967;SDS011;39536;52.198;9.920;2022-07-01T01:49:46;11.27;;;10.50;;
13967;SDS011;39536;52.198;9.920;2022-07-01T01:52:12;10.77;;;10.00;;
13967;SDS011;39536;52.198;9.920;2022-07-01T01:54:38;10.60;;;10.00;;
13967;SDS011;39536;52.198;9.920;2022-07-01T01:57:06;10.93;;;10.13;;
13967;SDS011;39536;52.198;9.920;2022-07-01T01:59:33;10.37;;;9.67;;
13967;SDS011;39536;52.198;9.920;2022-07-01T02:01:59;10.07;;;9.47;;
13967;SDS011;39536;52.198;9.920;2022-07-01T02:04:26;9.83;;;9.13;;
13967;SDS011;39536;52.198;9.920;2022-07-01T02:06:52;8.00;;;7.60;;
13967;SDS011;39536;52.198;9.920;2022-07-01T02:09:19;7.63;;;7.17;;
13967;SDS011;39536;52.198;9.920;2022-07-01T02:11:46;7.40;;;6.90;;
13967;SDS011;39536;52.198;9.920;2022-07-01T02:14:14;6.20;;;5.80;;
13967;SDS011;39536;52.198;9.920;2022-07-01T02:16:40;6.17;;;5.77;;
13967;SDS011;39536;52.198;9.920;2022-07-01T02:19:07;5.40;;;5.10;;
13967;SDS011;39536;52.198;9.920;2022-07-01T02:21:33;4.93;;;4.63;;
13967;SDS011;39536;52.198;9.920;2022-07-01T02:24:00;5.07;;;4.77;;
13967;SDS011;39536;52.198;9.920;2022-07-01T02:26:26;9.27;;;4.53;;
13967;SDS011;39536;52.198;9.920;2022-07-01T02:28:52;5.30;;;4.87;;
13967;SDS011;39536;52.198;9.920;2022-07-01T02:31:20;4.60;;;4.30;;
13967;SDS011;39536;52.198;9.920;2022-07-01T02:33:47;3.00;;;2.90;;
13967;SDS011;39536;52.198;9.920;2022-07-01T02:36:13;2.00;;;1.60;;
13967;SDS011;39536;52.198;9.920;2022-07-01T02:38:39;1.00;;;1.00;;
13967;SDS011;39536;52.198;9.920;2022-07-01T02:41:06;2.50;;;1.17;;
13967;SDS011;39536;52.198;9.920;2022-07-01T02:43:34;0.83;;;0.83;;
13967;SDS011;39536;52.198;9.920;2022-07-01T02:46:01;0.73;;;0.73;;
13967;SDS011;39536;52.198;9.920;2022-07-01T02:48:28;1.20;;;1.10;;
13967;SDS011;39536;52.198;9.920;2022-07-01T02:50:55;2.07;;;0.87;;
13967;SDS011;39536;52.198;9.920;2022-07-01T02:53:21;2.17;;;1.23;;
13967;SDS011;39536;52.198;9.920;2022-07-01T02:55:48;1.60;;;1.50;;
13967;SDS011;39536;52.198;9.920;2022-07-01T02:58:14;1.37;;;1.30;;
13967;SDS011;39536;52.198;9.920;2022-07-01T03:00:41;1.77;;;1.67;;
13967;SDS011;39536;52.198;9.920;2022-07-01T03:03:07;1.73;;;1.63;;
13967;SDS011;39536;52.198;9.920;2022-07-01T03:05:35;1.60;;;1.50;;
13967;SDS011;39536;52.198;9.920;2022-07-01T03:08:01;1.93;;;1.83;;
13967;SDS011;39536;52.198;9.920;2022-07-01T03:10:28;2.00;;;1.90;;
13967;SDS011;39536;52.198;9.920;2022-07-01T03:12:54;3.37;;;2.50;;
13967;SDS011;39536;52.198;9.920;2022-07-01T03:15:23;2.70;;;2.50;;
13967;SDS011;39536;52.198;9.920;2022-07-01T03:17:50;2.93;;;2.60;;
13967;SDS011;39536;52.198;9.920;2022-07-01T03:20:16;3.73;;;2.80;;
13967;SDS011;39536;52.198;9.920;2022-07-01T03:22:45;2.70;;;2.50;;
13967;SDS011;39536;52.198;9.920;2022-07-01T03:25:13;2.50;;;2.40;;
13967;SDS011;39536;52.198;9.920;2022-07-01T03:27:40;2.63;;;2.43;;
13967;SDS011;39536;52.198;9.920;2022-07-01T03:30:10;2.50;;;2.27;;
13967;SDS011;39536;52.198;9.920;2022-07-01T03:32:38;2.20;;;2.10;;
13967;SDS011;39536;52.198;9.920;2022-07-01T03:35:05;2.27;;;2.17;;
13967;SDS011;39536;52.198;9.920;2022-07-01T03:37:47;3.53;;;2.33;;
13967;SDS011;39536;52.198;9.920;2022-07-01T03:40:13;2.77;;;1.87;;
13967;SDS011;39536;52.198;9.920;2022-07-01T03:42:40;2.13;;;1.93;;
13967;SDS011;39536;52.198;9.920;2022-07-01T03:45:07;2.00;;;1.80;;
13967;SDS011;39536;52.198;9.920;2022-07-01T03:47:34;1.57;;;1.47;;
13967;SDS011;39536;52.198;9.920;2022-07-01T03:50:00;2.20;;;2.00;;
13967;SDS011;39536;52.198;9.920;2022-07-01T03:52:27;2.07;;;1.90;;
13967;SDS011;39536;52.198;9.920;2022-07-01T03:54:54;2.00;;;1.90;;
13967;SDS011;39536;52.198;9.920;2022-07-01T03:57:21;3.73;;;2.40;;
13967;SDS011;39536;52.198;9.920;2022-07-01T03:59:47;2.77;;;1.80;;
13967;SDS011;39536;52.198;9.920;2022-07-01T04:02:13;3.70;;;2.67;;
13967;SDS011;39536;52.198;9.920;2022-07-01T04:04:40;3.23;;;2.40;;
13967;SDS011;39536;52.198;9.920;2022-07-01T04:07:06;2.60;;;2.40;;
13967;SDS011;39536;52.198;9.920;2022-07-01T04:09:34;2.33;;;2.23;;
13967;SDS011;39536;52.198;9.920;2022-07-01T04:12:02;2.10;;;1.90;;
13967;SDS011;39536;52.198;9.920;2022-07-01T04:14:32;1.80;;;1.70;;
13967;SDS011;39536;52.198;9.920;2022-07-01T04:16:59;2.97;;;2.23;;
13967;SDS011;39536;52.198;9.920;2022-07-01T04:19:25;2.10;;;2.00;;
13967;SDS011;39536;52.198;9.920;2022-07-01T04:21:52;1.80;;;1.70;;
13967;SDS011;39536;52.198;9.920;2022-07-01T04:24:36;1.23;;;1.17;;
13967;SDS011;39536;52.198;9.920;2022-07-01T04:27:04;1.43;;;1.43;;
13967;SDS011;39536;52.198;9.920;2022-07-01T04:29:31;1.83;;;1.70;;
13967;SDS011;39536;52.198;9.920;2022-07-01T04:31:57;1.23;;;1.23;;
13967;SDS011;39536;52.198;9.920;2022-07-01T04:34:24;1.40;;;1.30;;
13967;SDS011;39536;52.198;9.920;2022-07-01T04:36:50;1.50;;;1.40;;
13967;SDS011;39536;52.198;9.920;2022-07-01T04:39:17;1.67;;;1.57;;
13967;SDS011;39536;52.198;9.920;2022-07-01T04:41:43;1.40;;;1.30;;
13967;SDS011;39536;52.198;9.920;2022-07-01T04:44:27;1.63;;;1.50;;
13967;SDS011;39536;52.198;9.920;2022-07-01T04:46:54;1.60;;;1.50;;
13967;SDS011;39536;52.198;9.920;2022-07-01T04:49:21;2.70;;;1.60;;
13967;SDS011;39536;52.198;9.920;2022-07-01T04:51:47;1.40;;;1.40;;
13967;SDS011;39536;52.198;9.920;2022-07-01T04:54:14;2.07;;;1.50;;
13967;SDS011;39536;52.198;9.920;2022-07-01T04:56:40;1.73;;;1.60;;
13967;SDS011;39536;52.198;9.920;2022-07-01T04:59:07;2.07;;;1.50;;
13967;SDS011;39536;52.198;9.920;2022-07-01T05:01:35;2.70;;;1.80;;
13967;SDS011;39536;52.198;9.920;2022-07-01T05:04:04;2.50;;;2.30;;
13967;SDS011;39536;52.198;9.920;2022-07-01T05:06:31;2.47;;;2.27;;
13967;SDS011;39536;52.198;9.920;2022-07-01T05:08:58;2.37;;;2.07;;
13967;SDS011;39536;52.198;9.920;2022-07-01T05:11:25;2.43;;;2.17;;
13967;SDS011;39536;52.198;9.920;2022-07-01T05:13:52;2.70;;;2.50;;
13967;SDS011;39536;52.198;9.920;2022-07-01T05:16:19;3.50;;;2.17;;
13967;SDS011;39536;52.198;9.920;2022-07-01T05:18:47;2.97;;;1.90;;
13967;SDS011;39536;52.198;9.920;2022-07-01T05:21:31;2.27;;;2.17;;
13967;SDS011;39536;52.198;9.920;2022-07-01T05:24:15;2.37;;;2.17;;
13967;SDS011;39536;52.198;9.920;2022-07-01T05:26:42;2.57;;;2.00;;
13967;SDS011;39536;52.198;9.920;2022-07-01T05:29:09;3.80;;;2.20;;
13967;SDS011;39536;52.198;9.920;2022-07-01T05:31:39;2.00;;;1.90;;
13967;SDS011;39536;52.198;9.920;2022-07-01T05:34:07;2.47;;;2.27;;
13967;SDS011;39536;52.198;9.920;2022-07-01T05:36:34;2.43;;;2.23;;
13967;SDS011;39536;52.198;9.920;2022-07-01T05:39:01;2.40;;;2.30;;
13967;SDS011;39536;52.198;9.920;2022-07-01T05:41:28;2.27;;;2.07;;
13967;SDS011;39536;52.198;9.920;2022-07-01T05:43:55;2.27;;;2.07;;
13967;SDS011;39536;52.198;9.920;2022-07-01T05:46:23;3.73;;;2.70;;
13967;SDS011;39536;52.198;9.920;2022-07-01T05:48:50;3.20;;;2.57;;
13967;SDS011;39536;52.198;9.920;2022-07-01T05:51:18;3.00;;;2.73;;
13967;SDS011;39536;52.198;9.920;2022-07-01T05:53:44;3.03;;;2.83;;
13967;SDS011;39536;52.198;9.920;2022-07-01T05:56:12;2.90;;;2.70;;
13967;SDS011;39536;52.198;9.920;2022-07-01T05:58:39;4.77;;;3.10;;
13967;SDS011;39536;52.198;9.920;2022-07-01T06:01:05;3.20;;;3.00;;
13967;SDS011;39536;52.198;9.920;2022-07-01T06:03:32;3.07;;;2.87;;
13967;SDS011;39536;52.198;9.920;2022-07-01T06:05:59;4.40;;;3.10;;
13967;SDS011;39536;52.198;9.920;2022-07-01T06:08:26;3.50;;;3.20;;
13967;SDS011;39536;52.198;9.920;2022-07-01T06:10:53;3.33;;;3.10;;
13967;SDS011;39536;52.198;9.920;2022-07-01T06:13:20;4.93;;;3.20;;
13967;SDS011;39536;52.198;9.920;2022-07-01T06:15:46;3.70;;;3.13;;
13967;SDS011;39536;52.198;9.920;2022-07-01T06:18:13;3.23;;;3.03;;
13967;SDS011;39536;52.198;9.920;2022-07-01T06:20:40;4.23;;;3.83;;
13967;SDS011;39536;52.198;9.920;2022-07-01T06:23:07;3.90;;;3.60;;
13967;SDS011;39536;52.198;9.920;2022-07-01T06:25:35;4.47;;;4.17;;
13967;SDS011;39536;52.198;9.920;2022-07-01T06:28:01;3.50;;;3.30;;
13967;SDS011;39536;52.198;9.920;2022-07-01T06:30:28;3.83;;;3.60;;
13967;SDS011;39536;52.198;9.920;2022-07-01T06:32:54;3.70;;;3.40;;
13967;SDS011;39536;52.198;9.920;2022-07-01T06:35:21;4.53;;;4.20;;
13967;SDS011;39536;52.198;9.920;2022-07-01T06:37:47;4.40;;;4.10;;
13967;SDS011;39536;52.198;9.920;2022-07-01T06:40:14;4.10;;;3.90;;
13967;SDS011;39536;52.198;9.920;2022-07-01T06:42:42;4.47;;;4.10;;
13967;SDS011;39536;52.198;9.920;2022-07-01T06:45:08;4.23;;;3.93;;
13967;SDS011;39536;52.198;9.920;2022-07-01T06:47:36;6.20;;;5.70;;
13967;SDS011;39536;52.198;9.920;2022-07-01T06:50:02;5.20;;;4.83;;
13967;SDS011;39536;52.198;9.920;2022-07-01T06:52:30;5.13;;;4.83;;
13967;SDS011;39536;52.198;9.920;2022-07-01T06:54:56;5.10;;;4.80;;
13967;SDS011;39536;52.198;9.920;2022-07-01T06:57:23;6.23;;;5.83;;
13967;SDS011;39536;52.198;9.920;2022-07-01T06:59:51;6.23;;;5.63;;
13967;SDS011;39536;52.198;9.920;2022-07-01T07:02:17;5.37;;;5.07;;
13967;SDS011;39536;52.198;9.920;2022-07-01T07:04:46;5.10;;;4.80;;
13967;SDS011;39536;52.198;9.920;2022-07-01T07:07:22;5.63;;;5.23;;
13967;SDS011;39536;52.198;9.920;2022-07-01T07:09:48;5.37;;;5.07;;
13967;SDS011;39536;52.198;9.920;2022-07-01T07:12:15;6.17;;;5.77;;
13967;SDS011;39536;52.198;9.920;2022-07-01T07:14:41;5.80;;;5.33;;
13967;SDS011;39536;52.198;9.920;2022-07-01T07:17:09;5.77;;;5.47;;
13967;SDS011;39536;52.198;9.920;2022-07-01T07:19:36;7.13;;;5.83;;
13967;SDS011;39536;52.198;9.920;2022-07-01T07:22:03;6.43;;;6.00;;
13967;SDS011;39536;52.198;9.920;2022-07-01T07:24:55;6.50;;;6.00;;
13967;SDS011;39536;52.198;9.920;2022-07-01T07:27:30;7.00;;;6.50;;
13967;SDS011;39536;52.198;9.920;2022-07-01T07:30:04;6.00;;;5.63;;
13967;SDS011;39536;52.198;9.920;2022-07-01T07:32:33;7.07;;;6.43;;
13967;SDS011;39536;52.198;9.920;2022-07-01T07:34:59;7.33;;;6.73;;
13967;SDS011;39536;52.198;9.920;2022-07-01T07:37:25;7.60;;;7.03;;
13967;SDS011;39536;52.198;9.920;2022-07-01T07:39:52;7.90;;;7.40;;
13967;SDS011;39536;52.198;9.920;2022-07-01T07:42:18;8.63;;;7.93;;
13967;SDS011;39536;52.198;9.920;2022-07-01T07:44:45;8.33;;;7.73;;
13967;SDS011;39536;52.198;9.920;2022-07-01T07:47:11;8.33;;;7.73;;
13967;SDS011;39536;52.198;9.920;2022-07-01T07:49:39;9.40;;;8.57;;
13967;SDS011;39536;52.198;9.920;2022-07-01T07:52:06;8.93;;;8.27;;
13967;SDS011;39536;52.198;9.920;2022-07-01T07:54:35;9.20;;;8.50;;
13967;SDS011;39536;52.198;9.920;2022-07-01T07:57:20;9.30;;;8.60;;
13967;SDS011;39536;52.198;9.920;2022-07-01T07:59:47;8.47;;;7.97;;
13967;SDS011;39536;52.198;9.920;2022-07-01T08:02:13;7.57;;;7.07;;
13967;SDS011;39536;52.198;9.920;2022-07-01T08:04:44;8.47;;;7.80;;
13967;SDS011;39536;52.198;9.920;2022-07-01T08:07:13;8.10;;;7.60;;
13967;SDS011;39536;52.198;9.920;2022-07-01T08:09:39;8.73;;;8.03;;
13967;SDS011;39536;52.198;9.920;2022-07-01T08:12:11;8.23;;;7.73;;
13967;SDS011;39536;52.198;9.920;2022-07-01T08:15:09;9.33;;;8.53;;
13967;SDS011;39536;52.198;9.920;2022-07-01T08:17:36;8.67;;;8.17;;
13967;SDS011;39536;52.198;9.920;2022-07-01T08:20:05;10.27;;;9.33;;
13967;SDS011;39536;52.198;9.920;2022-07-01T08:22:32;8.73;;;8.23;;
13967;SDS011;39536;52.198;9.920;2022-07-01T08:24:58;9.20;;;8.67;;
13967;SDS011;39536;52.198;9.920;2022-07-01T08:27:25;9.13;;;8.27;;
13967;SDS011;39536;52.198;9.920;2022-07-01T08:29:51;8.60;;;8.00;;
13967;SDS011;39536;52.198;9.920;2022-07-01T08:32:18;8.53;;;8.03;;
13967;SDS011;39536;52.198;9.920;2022-07-01T08:34:46;6.80;;;6.20;;
13967;SDS011;39536;52.198;9.920;2022-07-01T08:37:14;5.13;;;4.83;;
13967;SDS011;39536;52.198;9.920;2022-07-01T08:39:41;3.67;;;3.47;;
13967;SDS011;39536;52.198;9.920;2022-07-01T08:42:07;3.90;;;3.70;;
13967;SDS011;39536;52.198;9.920;2022-07-01T08:44:34;4.63;;;4.33;;
13967;SDS011;39536;52.198;9.920;2022-07-01T08:47:01;5.80;;;4.20;;
13967;SDS011;39536;52.198;9.920;2022-07-01T08:49:27;7.97;;;5.20;;
13967;SDS011;39536;52.198;9.920;2022-07-01T08:51:54;5.00;;;4.70;;
13967;SDS011;39536;52.198;9.920;2022-07-01T08:54:22;5.77;;;5.43;;
13967;SDS011;39536;52.198;9.920;2022-07-01T08:56:49;5.67;;;5.37;;
13967;SDS011;39536;52.198;9.920;2022-07-01T08:59:28;5.80;;;5.50;;
13967;SDS011;39536;52.198;9.920;2022-07-01T09:01:55;16.83;;;8.47;;
13967;SDS011;39536;52.198;9.920;2022-07-01T09:04:23;6.77;;;6.27;;
13967;SDS011;39536;52.198;9.920;2022-07-01T09:06:50;12.47;;;8.17;;
13967;SDS011;39536;52.198;9.920;2022-07-01T09:09:17;6.70;;;6.30;;
13967;SDS011;39536;52.198;9.920;2022-07-01T09:11:47;7.13;;;6.60;;
13967;SDS011;39536;52.198;9.920;2022-07-01T09:14:24;5.87;;;5.57;;
13967;SDS011;39536;52.198;9.920;2022-07-01T09:16:54;6.03;;;5.63;;
13967;SDS011;39536;52.198;9.920;2022-07-01T09:19:23;5.90;;;5.50;;
13967;SDS011;39536;52.198;9.920;2022-07-01T09:21:50;6.13;;;5.73;;
13967;SDS011;39536;52.198;9.920;2022-07-01T09:24:22;7.73;;;7.00;;
13967;SDS011;39536;52.198;9.920;2022-07-01T09:26:55;6.70;;;6.27;;
13967;SDS011;39536;52.198;9.920;2022-07-01T09:29:26;6.97;;;6.33;;
13967;SDS011;39536;52.198;9.920;2022-07-01T09:31:56;6.70;;;6.20;;
13967;SDS011;39536;52.198;9.920;2022-07-01T09:34:23;6.27;;;5.77;;
13967;SDS011;39536;52.198;9.920;2022-07-01T09:36:53;5.97;;;5.40;;
13967;SDS011;39536;52.198;9.920;2022-07-01T09:39:21;6.40;;;6.00;;
13967;SDS011;39536;52.198;9.920;2022-07-01T09:41:47;6.50;;;6.00;;
13967;SDS011;39536;52.198;9.920;2022-07-01T09:44:15;7.03;;;6.53;;
13967;SDS011;39536;52.198;9.920;2022-07-01T09:46:51;7.47;;;6.87;;
13967;SDS011;39536;52.198;9.920;2022-07-01T09:49:19;6.87;;;6.47;;
13967;SDS011;39536;52.198;9.920;2022-07-01T09:51:46;7.33;;;6.77;;
13967;SDS011;39536;52.198;9.920;2022-07-01T09:54:14;7.17;;;6.67;;
13967;SDS011;39536;52.198;9.920;2022-07-01T09:56:41;8.27;;;7.47;;
13967;SDS011;39536;52.198;9.920;2022-07-01T09:59:08;8.47;;;7.97;;
13967;SDS011;39536;52.198;9.920;2022-07-01T10:01:36;8.67;;;8.07;;
13967;SDS011;39536;52.198;9.920;2022-07-01T10:04:04;11.63;;;9.63;;
13967;SDS011;39536;52.198;9.920;2022-07-01T10:06:40;7.87;;;7.20;;
13967;SDS011;39536;52.198;9.920;2022-07-01T10:09:20;8.00;;;7.50;;
13967;SDS011;39536;52.198;9.920;2022-07-01T10:14:53;8.17;;;7.57;;
13967;SDS011;39536;52.198;9.920;2022-07-01T10:17:29;8.37;;;7.77;;
13967;SDS011;39536;52.198;9.920;2022-07-01T10:20:06;7.97;;;7.37;;
13967;SDS011;39536;52.198;9.920;2022-07-01T10:22:37;7.80;;;7.00;;
13967;SDS011;39536;52.198;9.920;2022-07-01T10:28:16;7.90;;;7.40;;
13967;SDS011;39536;52.198;9.920;2022-07-01T10:33:40;7.67;;;7.17;;
13967;SDS011;39536;52.198;9.920;2022-07-01T10:36:11;8.03;;;7.43;;
13967;SDS011;39536;52.198;9.920;2022-07-01T10:41:37;8.77;;;8.17;;
13967;SDS011;39536;52.198;9.920;2022-07-01T10:44:05;8.50;;;7.90;;
13967;SDS011;39536;52.198;9.920;2022-07-01T10:46:39;9.27;;;8.57;;
13967;SDS011;39536;52.198;9.920;2022-07-01T10:49:10;8.17;;;7.57;;
13967;SDS011;39536;52.198;9.920;2022-07-01T10:51:48;9.10;;;8.37;;
13967;SDS011;39536;52.198;9.920;2022-07-01T10:57:21;8.93;;;8.23;;
13967;SDS011;39536;52.198;9.920;2022-07-01T10:59:52;9.73;;;8.83;;
13967;SDS011;39536;52.198;9.920;2022-07-01T11:02:19;9.40;;;8.70;;
13967;SDS011;39536;52.198;9.920;2022-07-01T11:04:48;9.30;;;8.60;;
13967;SDS011;39536;52.198;9.920;2022-07-01T11:07:17;9.37;;;8.77;;
13967;SDS011;39536;52.198;9.920;2022-07-01T11:09:43;8.93;;;8.23;;
13967;SDS011;39536;52.198;9.920;2022-07-01T11:12:10;9.73;;;9.00;;
13967;SDS011;39536;52.198;9.920;2022-07-01T11:14:37;9.70;;;9.07;;
13967;SDS011;39536;52.198;9.920;2022-07-01T11:17:06;9.70;;;9.10;;
13967;SDS011;39536;52.198;9.920;2022-07-01T11:19:33;11.30;;;10.40;;
13967;SDS011;39536;52.198;9.920;2022-07-01T11:22:02;9.50;;;8.80;;
13967;SDS011;39536;52.198;9.920;2022-07-01T11:24:30;10.07;;;9.27;;
13967;SDS011;39536;52.198;9.920;2022-07-01T11:26:59;9.47;;;8.73;;
13967;SDS011;39536;52.198;9.920;2022-07-01T11:29:27;10.20;;;9.50;;
13967;SDS011;39536;52.198;9.920;2022-07-01T11:31:54;9.57;;;8.90;;
13967;SDS011;39536;52.198;9.920;2022-07-01T11:34:21;9.40;;;8.70;;
13967;SDS011;39536;52.198;9.920;2022-07-01T11:36:48;8.30;;;7.50;;
13967;SDS011;39536;52.198;9.920;2022-07-01T11:39:33;8.30;;;7.70;;
13967;SDS011;39536;52.198;9.920;2022-07-01T11:42:01;8.30;;;7.77;;
13967;SDS011;39536;52.198;9.920;2022-07-01T11:44:32;11.57;;;8.67;;
13967;SDS011;39536;52.198;9.920;2022-07-01T11:46:59;9.50;;;8.90;;
13967;SDS011;39536;52.198;9.920;2022-07-01T11:49:26;8.83;;;8.13;;
13967;SDS011;39536;52.198;9.920;2022-07-01T11:51:56;8.33;;;7.70;;
13967;SDS011;39536;52.198;9.920;2022-07-01T11:54:24;8.53;;;8.03;;
13967;SDS011;39536;52.198;9.920;2022-07-01T11:56:52;8.43;;;7.93;;
13967;SDS011;39536;52.198;9.920;2022-07-01T11:59:18;9.53;;;8.93;;
13967;SDS011;39536;52.198;9.920;2022-07-01T12:01:50;7.50;;;6.90;;
13967;SDS011;39536;52.198;9.920;2022-07-01T12:04:18;6.47;;;5.90;;
13967;SDS011;39536;52.198;9.920;2022-07-01T12:06:45;6.57;;;6.13;;
13967;SDS011;39536;52.198;9.920;2022-07-01T12:09:13;7.27;;;6.60;;
13967;SDS011;39536;52.198;9.920;2022-07-01T12:11:43;7.43;;;6.73;;
13967;SDS011;39536;52.198;9.920;2022-07-01T12:14:12;6.80;;;6.43;;
13967;SDS011;39536;52.198;9.920;2022-07-01T12:16:45;6.37;;;5.87;;
13967;SDS011;39536;52.198;9.920;2022-07-01T12:19:12;8.17;;;7.50;;
13967;SDS011;39536;52.198;9.920;2022-07-01T12:21:48;6.83;;;6.37;;
13967;SDS011;39536;52.198;9.920;2022-07-01T12:24:16;8.27;;;7.50;;
13967;SDS011;39536;52.198;9.920;2022-07-01T12:26:51;8.53;;;7.07;;
13967;SDS011;39536;52.198;9.920;2022-07-01T12:29:21;6.93;;;6.53;;
13967;SDS011;39536;52.198;9.920;2022-07-01T12:31:58;13.47;;;6.37;;
13967;SDS011;39536;52.198;9.920;2022-07-01T12:37:48;6.50;;;6.00;;
13967;SDS011;39536;52.198;9.920;2022-07-01T12:40:19;6.67;;;6.27;;
13967;SDS011;39536;52.198;9.920;2022-07-01T12:42:47;6.80;;;6.30;;
13967;SDS011;39536;52.198;9.920;2022-07-01T12:45:16;6.97;;;6.53;;
13967;SDS011;39536;52.198;9.920;2022-07-01T12:47:43;6.93;;;6.53;;
13967;SDS011;39536;52.198;9.920;2022-07-01T12:50:13;7.83;;;7.23;;
13967;SDS011;39536;52.198;9.920;2022-07-01T12:52:42;6.07;;;5.67;;
13967;SDS011;39536;52.198;9.920;2022-07-01T12:55:12;6.47;;;6.07;;
13967;SDS011;39536;52.198;9.920;2022-07-01T12:57:40;6.23;;;5.70;;
13967;SDS011;39536;52.198;9.920;2022-07-01T13:00:07;6.07;;;5.57;;
13967;SDS011;39536;52.198;9.920;2022-07-01T13:02:36;6.37;;;5.83;;
13967;SDS011;39536;52.198;9.920;2022-07-01T13:05:03;5.80;;;5.27;;
13967;SDS011;39536;52.198;9.920;2022-07-01T13:07:30;5.60;;;5.20;;
13967;SDS011;39536;52.198;9.920;2022-07-01T13:09:56;6.10;;;5.67;;
13967;SDS011;39536;52.198;9.920;2022-07-01T13:12:23;4.77;;;4.50;;
13967;SDS011;39536;52.198;9.920;2022-07-01T13:14:49;13.43;;;5.47;;
13967;SDS011;39536;52.198;9.920;2022-07-01T13:17:16;5.00;;;4.60;;
13967;SDS011;39536;52.198;9.920;2022-07-01T13:19:44;5.73;;;5.27;;
13967;SDS011;39536;52.198;9.920;2022-07-01T13:22:10;5.03;;;4.63;;
13967;SDS011;39536;52.198;9.920;2022-07-01T13:24:36;5.43;;;5.00;;
13967;SDS011;39536;52.198;9.920;2022-07-01T13:27:03;4.03;;;3.70;;
13967;SDS011;39536;52.198;9.920;2022-07-01T13:29:30;5.23;;;4.80;;
13967;SDS011;39536;52.198;9.920;2022-07-01T13:31:57;4.30;;;4.00;;
13967;SDS011;39536;52.198;9.920;2022-07-01T13:34:23;5.43;;;5.03;;
13967;SDS011;39536;52.198;9.920;2022-07-01T13:36:51;5.53;;;5.13;;
13967;SDS011;39536;52.198;9.920;2022-07-01T13:39:18;5.90;;;5.40;;
13967;SDS011;39536;52.198;9.920;2022-07-01T13:41:45;5.40;;;4.90;;
13967;SDS011;39536;52.198;9.920;2022-07-01T13:44:11;5.00;;;4.67;;
13967;SDS011;39536;52.198;9.920;2022-07-01T13:46:38;5.50;;;5.00;;
13967;SDS011;39536;52.198;9.920;2022-07-01T13:49:05;5.07;;;4.67;;
13967;SDS011;39536;52.198;9.920;2022-07-01T13:51:32;4.77;;;4.50;;
13967;SDS011;39536;52.198;9.920;2022-07-01T13:54:00;4.93;;;4.53;;
13967;SDS011;39536;52.198;9.920;2022-07-01T13:56:26;5.10;;;4.80;;
13967;SDS011;39536;52.198;9.920;2022-07-01T13:58:53;5.10;;;4.63;;
13967;SDS011;39536;52.198;9.920;2022-07-01T14:01:20;4.57;;;4.27;;
13967;SDS011;39536;52.198;9.920;2022-07-01T14:03:48;5.27;;;4.87;;
13967;SDS011;39536;52.198;9.920;2022-07-01T14:06:15;5.70;;;5.20;;
13967;SDS011;39536;52.198;9.920;2022-07-01T14:08:42;5.40;;;5.03;;
13967;SDS011;39536;52.198;9.920;2022-07-01T14:11:10;4.60;;;4.40;;
13967;SDS011;39536;52.198;9.920;2022-07-01T14:13:36;4.30;;;4.00;;
13967;SDS011;39536;52.198;9.920;2022-07-01T14:16:06;4.67;;;4.27;;
13967;SDS011;39536;52.198;9.920;2022-07-01T14:18:33;5.00;;;4.70;;
13967;SDS011;39536;52.198;9.920;2022-07-01T14:21:00;4.60;;;4.30;;
13967;SDS011;39536;52.198;9.920;2022-07-01T14:23:27;5.37;;;4.97;;
13967;SDS011;39536;52.198;9.920;2022-07-01T14:25:53;6.20;;;5.77;;
13967;SDS011;39536;52.198;9.920;2022-07-01T14:28:21;6.50;;;6.10;;
13967;SDS011;39536;52.198;9.920;2022-07-01T14:30:48;6.60;;;6.20;;
13967;SDS011;39536;52.198;9.920;2022-07-01T14:33:15;7.33;;;6.80;;
13967;SDS011;39536;52.198;9.920;2022-07-01T14:35:41;7.73;;;7.03;;
13967;SDS011;39536;52.198;9.920;2022-07-01T14:38:08;6.97;;;6.47;;
13967;SDS011;39536;52.198;9.920;2022-07-01T14:40:35;6.60;;;6.10;;
13967;SDS011;39536;52.198;9.920;2022-07-01T14:43:02;7.30;;;6.77;;
13967;SDS011;39536;52.198;9.920;2022-07-01T14:45:30;6.90;;;6.30;;
13967;SDS011;39536;52.198;9.920;2022-07-01T14:47:58;5.50;;;5.10;;
13967;SDS011;39536;52.198;9.920;2022-07-01T14:50:25;6.77;;;4.10;;
13967;SDS011;39536;52.198;9.920;2022-07-01T14:52:51;3.90;;;3.60;;
13967;SDS011;39536;52.198;9.920;2022-07-01T14:55:18;3.80;;;3.50;;
13967;SDS011;39536;52.198;9.920;2022-07-01T14:57:44;3.20;;;3.03;;
13967;SDS011;39536;52.198;9.920;2022-07-01T15:00:11;3.17;;;2.80;;
13967;SDS011;39536;52.198;9.920;2022-07-01T15:02:39;4.57;;;3.27;;
13967;SDS011;39536;52.198;9.920;2022-07-01T15:05:06;3.47;;;2.90;;
13967;SDS011;39536;52.198;9.920;2022-07-01T15:07:33;3.70;;;2.70;;
13967;SDS011;39536;52.198;9.920;2022-07-01T15:10:00;4.53;;;2.90;;